sensor_id;sensor_type;location;lat;lon;timestamp;pressure;altitude;pressure_sealevel;temperature;humidity
53619;BME280;39505;53.040;18.488;2022-10-18T00:00:00;102003.59;;;12.71;100.00
53619;BME280;39505;53.040;18.488;2022-10-18T00:00:13;102010.78;;;12.71;100.00
53619;BME280;39505;53.040;18.488;2022-10-18T00:00:46;102015.22;;;12.72;100.00
53619;BME280;39505;53.040;18.488;2022-10-18T00:01:18;102008.09;;;12.71;100.00
53619;BME280;39505;53.040;18.488;2022-10-18T00:01:32;102003.72;;;12.70;100.00
53619;BME280;39505;53.040;18.488;2022-10-18T00:01:45;102007.38;;;12.69;100.00
53619;BME280;39505;53.040;18.488;2022-10-18T00:01:58;102003.72;;;12.70;100.00
53619;BME280;39505;53.040;18.488;2022-10-18T00:02:11;102003.72;;;12.70;100.00
53619;BME280;39505;53.040;18.488;2022-10-18T00:02:24;102005.66;;;12.68;100.00
53619;BME280;39505;53.040;18.488;2022-10-18T00:02:37;102002.97;;;12.68;100.00
53619;BME280;39505;53.040;18.488;2022-10-18T00:02:49;102005.66;;;12.68;100.00
53619;BME280;39505;53.040;18.488;2022-10-18T00:03:02;102007.38;;;12.69;100.00
53619;BME280;39505;53.040;18.488;2022-10-18T00:03:16;102005.66;;;12.68;100.00
53619;BME280;39505;53.040;18.488;2022-10-18T00:03:29;102003.81;;;12.68;100.00
53619;BME280;39505;53.040;18.488;2022-10-18T00:03:41;102005.66;;;12.68;100.00
53619;BME280;39505;53.040;18.488;2022-10-18T00:03:59;102002.97;;;12.68;100.00
53619;BME280;39505;53.040;18.488;2022-10-18T00:04:12;102008.34;;;12.68;100.00
53619;BME280;39505;53.040;18.488;2022-10-18T00:04:25;102007.50;;;12.67;100.00
53619;BME280;39505;53.040;18.488;2022-10-18T00:04:39;102010.19;;;12.67;100.00
53619;BME280;39505;53.040;18.488;2022-10-18T00:04:51;102004.81;;;12.67;100.00
53619;BME280;39505;53.040;18.488;2022-10-18T00:05:04;102007.50;;;12.67;100.00
53619;BME280;39505;53.040;18.488;2022-10-18T00:05:17;101999.44;;;12.67;100.00
53619;BME280;39505;53.040;18.488;2022-10-18T00:05:30;102004.81;;;12.67;100.00
53619;BME280;39505;53.040;18.488;2022-10-18T00:05:43;102003.94;;;12.67;100.00
53619;BME280;39505;53.040;18.488;2022-10-18T00:05:56;102001.22;;;12.67;100.00
53619;BME280;39505;53.040;18.488;2022-10-18T00:06:09;102010.19;;;12.67;100.00
53619;BME280;39505;53.040;18.488;2022-10-18T00:06:22;102004.06;;;12.65;100.00
53619;BME280;39505;53.040;18.488;2022-10-18T00:06:35;102006.75;;;12.65;100.00
53619;BME280;39505;53.040;18.488;2022-10-18T00:06:53;102009.31;;;12.67;100.00
53619;BME280;39505;53.040;18.488;2022-10-18T00:07:06;102002.22;;;12.66;100.00
53619;BME280;39505;53.040;18.488;2022-10-18T00:07:19;102000.50;;;12.65;100.00
53619;BME280;39505;53.040;18.488;2022-10-18T00:07:33;102004.16;;;12.64;100.00
53619;BME280;39505;53.040;18.488;2022-10-18T00:07:45;102005.88;;;12.65;100.00
53619;BME280;39505;53.040;18.488;2022-10-18T00:07:58;102001.47;;;12.64;100.00
53619;BME280;39505;53.040;18.488;2022-10-18T00:08:11;101999.63;;;12.64;100.00
53619;BME280;39505;53.040;18.488;2022-10-18T00:08:24;102000.50;;;12.65;100.00
53619;BME280;39505;53.040;18.488;2022-10-18T00:08:38;102006.00;;;12.63;100.00
53619;BME280;39505;53.040;18.488;2022-10-18T00:08:52;102004.16;;;12.64;100.00
53619;BME280;39505;53.040;18.488;2022-10-18T00:09:04;102007.94;;;12.61;100.00
53619;BME280;39505;53.040;18.488;2022-10-18T00:09:17;102002.47;;;12.63;100.00
53619;BME280;39505;53.040;18.488;2022-10-18T00:09:30;102002.47;;;12.63;100.00
53619;BME280;39505;53.040;18.488;2022-10-18T00:09:42;102001.59;;;12.62;100.00
53619;BME280;39505;53.040;18.488;2022-10-18T00:09:55;102005.16;;;12.63;100.00
53619;BME280;39505;53.040;18.488;2022-10-18T00:10:09;102008.69;;;12.63;100.00
53619;BME280;39505;53.040;18.488;2022-10-18T00:10:22;102003.44;;;12.62;100.00
53619;BME280;39505;53.040;18.488;2022-10-18T00:10:35;102004.28;;;12.62;100.00
53619;BME280;39505;53.040;18.488;2022-10-18T00:10:48;102006.13;;;12.62;100.00
53619;BME280;39505;53.040;18.488;2022-10-18T00:11:01;102001.72;;;12.61;100.00
53619;BME280;39505;53.040;18.488;2022-10-18T00:11:14;101999.03;;;12.61;100.00
53619;BME280;39505;53.040;18.488;2022-10-18T00:11:27;102003.53;;;12.60;100.00
53619;BME280;39505;53.040;18.488;2022-10-18T00:11:40;102002.69;;;12.60;100.00
53619;BME280;39505;53.040;18.488;2022-10-18T00:11:53;101998.28;;;12.59;100.00
53619;BME280;39505;53.040;18.488;2022-10-18T00:12:06;102003.78;;;12.57;100.00
53619;BME280;39505;53.040;18.488;2022-10-18T00:12:19;102007.31;;;12.58;100.00
53619;BME280;39505;53.040;18.488;2022-10-18T00:12:34;102001.94;;;12.58;100.00
53619;BME280;39505;53.040;18.488;2022-10-18T00:12:47;102002.91;;;12.57;100.00
53619;BME280;39505;53.040;18.488;2022-10-18T00:13:00;102003.78;;;12.57;100.00
53619;BME280;39505;53.040;18.488;2022-10-18T00:13:14;101997.53;;;12.57;100.00
53619;BME280;39505;53.040;18.488;2022-10-18T00:13:27;102000.22;;;12.57;100.00
53619;BME280;39505;53.040;18.488;2022-10-18T00:13:40;101994.97;;;12.55;100.00
53619;BME280;39505;53.040;18.488;2022-10-18T00:13:54;102005.72;;;12.55;100.00
53619;BME280;39505;53.040;18.488;2022-10-18T00:14:07;101998.50;;;12.56;100.00
53619;BME280;39505;53.040;18.488;2022-10-18T00:14:20;102004.00;;;12.54;100.00
53619;BME280;39505;53.040;18.488;2022-10-18T00:14:32;102004.00;;;12.54;100.00
53619;BME280;39505;53.040;18.488;2022-10-18T00:14:47;102005.97;;;12.52;100.00
53619;BME280;39505;53.040;18.488;2022-10-18T00:15:03;102001.44;;;12.52;100.00
53619;BME280;39505;53.040;18.488;2022-10-18T00:15:17;102007.66;;;12.53;100.00
53619;BME280;39505;53.040;18.488;2022-10-18T00:15:30;101995.19;;;12.52;100.00
53619;BME280;39505;53.040;18.488;2022-10-18T00:15:48;102000.59;;;12.52;100.00
53619;BME280;39505;53.040;18.488;2022-10-18T00:16:03;102000.59;;;12.52;100.00
53619;BME280;39505;53.040;18.488;2022-10-18T00:16:18;102003.28;;;12.52;100.00
53619;BME280;39505;53.040;18.488;2022-10-18T00:16:31;101998.84;;;12.51;100.00
53619;BME280;39505;53.040;18.488;2022-10-18T00:16:44;101991.88;;;12.48;100.00
53619;BME280;39505;53.040;18.488;2022-10-18T00:16:56;102002.53;;;12.50;100.00
53619;BME280;39505;53.040;18.488;2022-10-18T00:17:09;101990.88;;;12.49;100.00
53619;BME280;39505;53.040;18.488;2022-10-18T00:17:22;102001.63;;;12.49;100.00
53619;BME280;39505;53.040;18.488;2022-10-18T00:17:35;102001.63;;;12.49;100.00
53619;BME280;39505;53.040;18.488;2022-10-18T00:17:48;102002.63;;;12.48;100.00
53619;BME280;39505;53.040;18.488;2022-10-18T00:18:02;101995.41;;;12.49;100.00
53619;BME280;39505;53.040;18.488;2022-10-18T00:18:14;101998.22;;;12.47;100.00
53619;BME280;39505;53.040;18.488;2022-10-18T00:18:27;101992.81;;;12.47;100.00
53619;BME280;39505;53.040;18.488;2022-10-18T00:18:40;101998.22;;;12.47;100.00
53619;BME280;39505;53.040;18.488;2022-10-18T00:18:54;101994.56;;;12.48;100.00
53619;BME280;39505;53.040;18.488;2022-10-18T00:19:06;101994.56;;;12.48;100.00
53619;BME280;39505;53.040;18.488;2022-10-18T00:19:19;101993.81;;;12.46;100.00
53619;BME280;39505;53.040;18.488;2022-10-18T00:19:38;101998.22;;;12.47;100.00
53619;BME280;39505;53.040;18.488;2022-10-18T00:19:51;101999.19;;;12.46;100.00
53619;BME280;39505;53.040;18.488;2022-10-18T00:20:05;102000.28;;;12.44;100.00
53619;BME280;39505;53.040;18.488;2022-10-18T00:20:18;101996.59;;;12.45;100.00
53619;BME280;39505;53.040;18.488;2022-10-18T00:20:31;101999.31;;;12.45;100.00
53619;BME280;39505;53.040;18.488;2022-10-18T00:20:43;101993.06;;;12.44;100.00
53619;BME280;39505;53.040;18.488;2022-10-18T00:20:58;101994.06;;;12.43;100.00
53619;BME280;39505;53.040;18.488;2022-10-18T00:21:15;101996.75;;;12.43;100.00
53619;BME280;39505;53.040;18.488;2022-10-18T00:21:27;101992.31;;;12.42;100.00
53619;BME280;39505;53.040;18.488;2022-10-18T00:21:40;101998.69;;;12.41;100.00
53619;BME280;39505;53.040;18.488;2022-10-18T00:21:53;101994.16;;;12.42;100.00
53619;BME280;39505;53.040;18.488;2022-10-18T00:22:06;101996.00;;;12.41;100.00
53619;BME280;39505;53.040;18.488;2022-10-18T00:22:18;101997.81;;;12.41;100.00
53619;BME280;39505;53.040;18.488;2022-10-18T00:22:33;102006.75;;;12.41;100.00
53619;BME280;39505;53.040;18.488;2022-10-18T00:22:46;101996.09;;;12.40;100.00
53619;BME280;39505;53.040;18.488;2022-10-18T00:22:59;101997.94;;;12.39;100.00
53619;BME280;39505;53.040;18.488;2022-10-18T00:23:11;101997.81;;;12.41;100.00
53619;BME280;39505;53.040;18.488;2022-10-18T00:23:24;101994.16;;;12.42;100.00
53619;BME280;39505;53.040;18.488;2022-10-18T00:23:37;101999.66;;;12.40;100.00
53619;BME280;39505;53.040;18.488;2022-10-18T00:23:52;101998.69;;;12.41;100.00
53619;BME280;39505;53.040;18.488;2022-10-18T00:24:05;102003.19;;;12.41;100.00
53619;BME280;39505;53.040;18.488;2022-10-18T00:24:18;101994.28;;;12.40;100.00
53619;BME280;39505;53.040;18.488;2022-10-18T00:24:31;102001.47;;;12.40;100.00
53619;BME280;39505;53.040;18.488;2022-10-18T00:24:43;102003.44;;;12.38;100.00
53619;BME280;39505;53.040;18.488;2022-10-18T00:24:56;102005.03;;;12.40;100.00
53619;BME280;39505;53.040;18.488;2022-10-18T00:25:10;102006.88;;;12.40;100.00
53619;BME280;39505;53.040;18.488;2022-10-18T00:25:22;102008.69;;;12.39;100.00
53619;BME280;39505;53.040;18.488;2022-10-18T00:25:35;102004.28;;;12.38;100.00
53619;BME280;39505;53.040;18.488;2022-10-18T00:25:48;102006.97;;;12.38;100.00
53619;BME280;39505;53.040;18.488;2022-10-18T00:26:03;102006.00;;;12.39;100.00
53619;BME280;39505;53.040;18.488;2022-10-18T00:26:18;102004.28;;;12.38;100.00
53619;BME280;39505;53.040;18.488;2022-10-18T00:26:31;102002.44;;;12.39;100.00
53619;BME280;39505;53.040;18.488;2022-10-18T00:26:44;102009.66;;;12.38;100.00
53619;BME280;39505;53.040;18.488;2022-10-18T00:26:57;102009.66;;;12.38;100.00
53619;BME280;39505;53.040;18.488;2022-10-18T00:27:10;102007.94;;;12.37;100.00
53619;BME280;39505;53.040;18.488;2022-10-18T00:27:23;102003.44;;;12.38;100.00
53619;BME280;39505;53.040;18.488;2022-10-18T00:27:37;102005.25;;;12.37;100.00
53619;BME280;39505;53.040;18.488;2022-10-18T00:27:49;102007.09;;;12.37;100.00
53619;BME280;39505;53.040;18.488;2022-10-18T00:28:02;102007.94;;;12.37;100.00
53619;BME280;39505;53.040;18.488;2022-10-18T00:28:16;102005.25;;;12.37;100.00
53619;BME280;39505;53.040;18.488;2022-10-18T00:28:29;102004.28;;;12.38;100.00
53619;BME280;39505;53.040;18.488;2022-10-18T00:28:43;102007.94;;;12.37;100.00
53619;BME280;39505;53.040;18.488;2022-10-18T00:28:58;102007.94;;;12.37;100.00
53619;BME280;39505;53.040;18.488;2022-10-18T00:29:12;102004.41;;;12.37;100.00
53619;BME280;39505;53.040;18.488;2022-10-18T00:29:25;102000.84;;;12.36;100.00
53619;BME280;39505;53.040;18.488;2022-10-18T00:29:38;102004.53;;;12.35;100.00
53619;BME280;39505;53.040;18.488;2022-10-18T00:29:52;102002.78;;;12.34;100.00
53619;BME280;39505;53.040;18.488;2022-10-18T00:30:05;102001.94;;;12.33;100.00
53619;BME280;39505;53.040;18.488;2022-10-18T00:30:18;102002.78;;;12.34;100.00
53619;BME280;39505;53.040;18.488;2022-10-18T00:30:31;102003.78;;;12.33;100.00
53619;BME280;39505;53.040;18.488;2022-10-18T00:30:43;101999.47;;;12.30;100.00
53619;BME280;39505;53.040;18.488;2022-10-18T00:30:56;101997.66;;;12.31;100.00
53619;BME280;39505;53.040;18.488;2022-10-18T00:31:12;102003.03;;;12.31;100.00
53619;BME280;39505;53.040;18.488;2022-10-18T00:31:27;102005.72;;;12.31;100.00
53619;BME280;39505;53.040;18.488;2022-10-18T00:31:42;102003.88;;;12.31;100.00
53619;BME280;39505;53.040;18.488;2022-10-18T00:31:55;102000.34;;;12.31;100.00
53619;BME280;39505;53.040;18.488;2022-10-18T00:32:08;101998.59;;;12.30;100.00
53619;BME280;39505;53.040;18.488;2022-10-18T00:32:23;101998.59;;;12.30;100.00
53619;BME280;39505;53.040;18.488;2022-10-18T00:32:36;102006.66;;;12.30;100.00
53619;BME280;39505;53.040;18.488;2022-10-18T00:32:49;102002.28;;;12.29;100.00
53619;BME280;39505;53.040;18.488;2022-10-18T00:33:02;102010.34;;;12.29;100.00
53619;BME280;39505;53.040;18.488;2022-10-18T00:33:15;102005.81;;;12.29;100.00
53619;BME280;39505;53.040;18.488;2022-10-18T00:33:27;101997.88;;;12.28;100.00
53619;BME280;39505;53.040;18.488;2022-10-18T00:33:42;102002.28;;;12.29;100.00
53619;BME280;39505;53.040;18.488;2022-10-18T00:33:57;101997.88;;;12.28;100.00
53619;BME280;39505;53.040;18.488;2022-10-18T00:34:13;102006.81;;;12.28;100.00
53619;BME280;39505;53.040;18.488;2022-10-18T00:34:26;102005.94;;;12.28;100.00
53619;BME280;39505;53.040;18.488;2022-10-18T00:34:38;102006.81;;;12.28;100.00
53619;BME280;39505;53.040;18.488;2022-10-18T00:34:51;102010.34;;;12.29;100.00
53619;BME280;39505;53.040;18.488;2022-10-18T00:35:05;102005.94;;;12.28;100.00
53619;BME280;39505;53.040;18.488;2022-10-18T00:35:19;102004.13;;;12.28;100.00
53619;BME280;39505;53.040;18.488;2022-10-18T00:35:33;102003.25;;;12.28;100.00
53619;BME280;39505;53.040;18.488;2022-10-18T00:35:46;102005.06;;;12.27;100.00
53619;BME280;39505;53.040;18.488;2022-10-18T00:35:59;102005.06;;;12.27;100.00
53619;BME280;39505;53.040;18.488;2022-10-18T00:36:12;102008.75;;;12.26;100.00
53619;BME280;39505;53.040;18.488;2022-10-18T00:36:27;102006.91;;;12.27;100.00
53619;BME280;39505;53.040;18.488;2022-10-18T00:36:40;102003.25;;;12.28;100.00
53619;BME280;39505;53.040;18.488;2022-10-18T00:36:54;102009.59;;;12.27;100.00
53619;BME280;39505;53.040;18.488;2022-10-18T00:37:07;102002.50;;;12.26;100.00
53619;BME280;39505;53.040;18.488;2022-10-18T00:37:20;102003.38;;;12.26;100.00
53619;BME280;39505;53.040;18.488;2022-10-18T00:37:33;102007.91;;;12.26;100.00
53619;BME280;39505;53.040;18.488;2022-10-18T00:37:46;102006.06;;;12.26;100.00
53619;BME280;39505;53.040;18.488;2022-10-18T00:38:00;102004.31;;;12.25;100.00
53619;BME280;39505;53.040;18.488;2022-10-18T00:38:12;102009.69;;;12.25;100.00
53619;BME280;39505;53.040;18.488;2022-10-18T00:38:25;102008.00;;;12.24;100.00
53619;BME280;39505;53.040;18.488;2022-10-18T00:38:38;102008.84;;;12.25;100.00
53619;BME280;39505;53.040;18.488;2022-10-18T00:38:51;102005.31;;;12.24;100.00
53619;BME280;39505;53.040;18.488;2022-10-18T00:39:05;102005.41;;;12.23;100.00
53619;BME280;39505;53.040;18.488;2022-10-18T00:39:20;102010.69;;;12.24;100.00
53619;BME280;39505;53.040;18.488;2022-10-18T00:39:33;102007.16;;;12.24;100.00
53619;BME280;39505;53.040;18.488;2022-10-18T00:39:46;102007.16;;;12.24;100.00
53619;BME280;39505;53.040;18.488;2022-10-18T00:39:58;102014.31;;;12.23;100.00
53619;BME280;39505;53.040;18.488;2022-10-18T00:40:11;102007.16;;;12.24;100.00
53619;BME280;39505;53.040;18.488;2022-10-18T00:40:24;102005.41;;;12.23;100.00
53619;BME280;39505;53.040;18.488;2022-10-18T00:40:36;102004.47;;;12.24;100.00
53619;BME280;39505;53.040;18.488;2022-10-18T00:40:49;102014.31;;;12.23;100.00
53619;BME280;39505;53.040;18.488;2022-10-18T00:41:03;102005.41;;;12.23;100.00
53619;BME280;39505;53.040;18.488;2022-10-18T00:41:19;102006.25;;;12.23;100.00
53619;BME280;39505;53.040;18.488;2022-10-18T00:41:34;102006.41;;;12.22;100.00
53619;BME280;39505;53.040;18.488;2022-10-18T00:41:48;102005.41;;;12.23;100.00
53619;BME280;39505;53.040;18.488;2022-10-18T00:42:01;102008.94;;;12.23;100.00
53619;BME280;39505;53.040;18.488;2022-10-18T00:42:16;102006.25;;;12.23;100.00
53619;BME280;39505;53.040;18.488;2022-10-18T00:42:31;102006.41;;;12.22;100.00
53619;BME280;39505;53.040;18.488;2022-10-18T00:42:46;102006.41;;;12.22;100.00
53619;BME280;39505;53.040;18.488;2022-10-18T00:42:59;102005.50;;;12.21;100.00
53619;BME280;39505;53.040;18.488;2022-10-18T00:43:14;102003.81;;;12.20;100.00
53619;BME280;39505;53.040;18.488;2022-10-18T00:43:27;102005.66;;;12.20;100.00
53619;BME280;39505;53.040;18.488;2022-10-18T00:43:54;102003.91;;;12.19;100.00
53619;BME280;39505;53.040;18.488;2022-10-18T00:45:15;101999.63;;;12.16;100.00
53619;BME280;39505;53.040;18.488;2022-10-18T00:45:28;102003.31;;;12.15;100.00
53619;BME280;39505;53.040;18.488;2022-10-18T00:45:42;102001.56;;;12.14;100.00
53619;BME280;39505;53.040;18.488;2022-10-18T00:45:55;102006.94;;;12.14;100.00
53619;BME280;39505;53.040;18.488;2022-10-18T00:46:07;102004.34;;;12.12;100.00
53619;BME280;39505;53.040;18.488;2022-10-18T00:46:20;102005.34;;;12.11;100.00
53619;BME280;39505;53.040;18.488;2022-10-18T00:46:34;102004.34;;;12.12;100.00
53619;BME280;39505;53.040;18.488;2022-10-18T00:46:48;101998.13;;;12.12;100.00
53619;BME280;39505;53.040;18.488;2022-10-18T00:47:04;102002.66;;;12.11;100.00
53619;BME280;39505;53.040;18.488;2022-10-18T00:47:18;101995.34;;;12.14;100.00
53619;BME280;39505;53.040;18.488;2022-10-18T00:47:33;102003.41;;;12.14;100.00
53619;BME280;39505;53.040;18.488;2022-10-18T00:47:50;101998.97;;;12.12;100.00
53619;BME280;39505;53.040;18.488;2022-10-18T00:48:04;101996.28;;;12.12;100.00
53619;BME280;39505;53.040;18.488;2022-10-18T00:48:18;101998.97;;;12.12;100.00
53619;BME280;39505;53.040;18.488;2022-10-18T00:48:32;101997.28;;;12.11;100.00
53619;BME280;39505;53.040;18.488;2022-10-18T00:48:45;102003.50;;;12.12;100.00
53619;BME280;39505;53.040;18.488;2022-10-18T00:49:00;101999.97;;;12.11;100.00
53619;BME280;39505;53.040;18.488;2022-10-18T00:49:16;101996.28;;;12.12;100.00
53619;BME280;39505;53.040;18.488;2022-10-18T00:49:33;101994.50;;;12.13;100.00
53619;BME280;39505;53.040;18.488;2022-10-18T00:49:50;101997.28;;;12.11;100.00
53619;BME280;39505;53.040;18.488;2022-10-18T00:50:04;101996.28;;;12.12;100.00
53619;BME280;39505;53.040;18.488;2022-10-18T00:50:20;102001.66;;;12.12;100.00
53619;BME280;39505;53.040;18.488;2022-10-18T00:50:35;101999.97;;;12.11;100.00
53619;BME280;39505;53.040;18.488;2022-10-18T00:50:49;101995.44;;;12.12;100.00
53619;BME280;39505;53.040;18.488;2022-10-18T00:51:02;101996.44;;;12.11;100.00
53619;BME280;39505;53.040;18.488;2022-10-18T00:51:16;102000.06;;;12.10;100.00
53619;BME280;39505;53.040;18.488;2022-10-18T00:51:33;101992.16;;;12.08;100.00
53619;BME280;39505;53.040;18.488;2022-10-18T00:51:50;102006.53;;;12.07;100.00
53619;BME280;39505;53.040;18.488;2022-10-18T00:52:08;101998.47;;;12.07;100.00
53619;BME280;39505;53.040;18.488;2022-10-18T00:52:25;102003.94;;;12.06;100.00
53619;BME280;39505;53.040;18.488;2022-10-18T00:52:43;101993.19;;;12.06;100.00
53619;BME280;39505;53.040;18.488;2022-10-18T00:53:00;101997.72;;;12.05;100.00
53619;BME280;39505;53.040;18.488;2022-10-18T00:53:15;101994.28;;;12.03;100.00
53619;BME280;39505;53.040;18.488;2022-10-18T00:53:29;101994.28;;;12.03;100.00
53619;BME280;39505;53.040;18.488;2022-10-18T00:53:42;102007.72;;;12.03;100.00
53619;BME280;39505;53.040;18.488;2022-10-18T00:53:54;102001.50;;;12.03;100.00
53619;BME280;39505;53.040;18.488;2022-10-18T00:54:07;102002.34;;;12.03;100.00
53619;BME280;39505;53.040;18.488;2022-10-18T00:54:21;102001.50;;;12.03;100.00
53619;BME280;39505;53.040;18.488;2022-10-18T00:54:37;101998.81;;;12.03;100.00
53619;BME280;39505;53.040;18.488;2022-10-18T00:54:51;101997.97;;;12.02;100.00
53619;BME280;39505;53.040;18.488;2022-10-18T00:55:05;101993.44;;;12.03;100.00
53619;BME280;39505;53.040;18.488;2022-10-18T00:55:18;101999.66;;;12.03;100.00
53619;BME280;39505;53.040;18.488;2022-10-18T00:55:32;101996.88;;;12.05;100.00
53619;BME280;39505;53.040;18.488;2022-10-18T00:55:45;101991.50;;;12.05;100.00
53619;BME280;39505;53.040;18.488;2022-10-18T00:55:59;101992.34;;;12.05;100.00
53619;BME280;39505;53.040;18.488;2022-10-18T00:56:13;101991.59;;;12.03;100.00
53619;BME280;39505;53.040;18.488;2022-10-18T00:56:25;101994.28;;;12.03;100.00
53619;BME280;39505;53.040;18.488;2022-10-18T00:56:38;102002.25;;;12.05;100.00
53619;BME280;39505;53.040;18.488;2022-10-18T00:56:51;101997.72;;;12.05;100.00
53619;BME280;39505;53.040;18.488;2022-10-18T00:57:04;101989.75;;;12.04;100.00
53619;BME280;39505;53.040;18.488;2022-10-18T00:57:17;101992.34;;;12.05;100.00
53619;BME280;39505;53.040;18.488;2022-10-18T00:57:30;101994.19;;;12.05;100.00
53619;BME280;39505;53.040;18.488;2022-10-18T00:57:45;101995.03;;;12.05;100.00
53619;BME280;39505;53.040;18.488;2022-10-18T00:58:00;101989.66;;;12.05;100.00
53619;BME280;39505;53.040;18.488;2022-10-18T00:58:16;101994.19;;;12.05;100.00
53619;BME280;39505;53.040;18.488;2022-10-18T00:58:31;102003.09;;;12.05;100.00
53619;BME280;39505;53.040;18.488;2022-10-18T00:58:45;101997.72;;;12.05;100.00
53619;BME280;39505;53.040;18.488;2022-10-18T00:58:59;101992.34;;;12.05;100.00
53619;BME280;39505;53.040;18.488;2022-10-18T00:59:14;101995.03;;;12.05;100.00
53619;BME280;39505;53.040;18.488;2022-10-18T00:59:28;101993.19;;;12.06;100.00
53619;BME280;39505;53.040;18.488;2022-10-18T00:59:42;101992.34;;;12.05;100.00
53619;BME280;39505;53.040;18.488;2022-10-18T00:59:55;102001.41;;;12.04;100.00
53619;BME280;39505;53.040;18.488;2022-10-18T01:00:10;101992.59;;;12.02;100.00
53619;BME280;39505;53.040;18.488;2022-10-18T01:00:23;101991.59;;;12.03;100.00
53619;BME280;39505;53.040;18.488;2022-10-18T01:00:36;102001.41;;;12.04;100.00
53619;BME280;39505;53.040;18.488;2022-10-18T01:00:50;101996.03;;;12.04;100.00
53619;BME280;39505;53.040;18.488;2022-10-18T01:01:03;102005.03;;;12.03;100.00
53619;BME280;39505;53.040;18.488;2022-10-18T01:01:17;101997.09;;;12.02;100.00
53619;BME280;39505;53.040;18.488;2022-10-18T01:01:30;101997.97;;;12.02;100.00
53619;BME280;39505;53.040;18.488;2022-10-18T01:01:43;101998.91;;;12.01;100.00
53619;BME280;39505;53.040;18.488;2022-10-18T01:01:57;102002.47;;;12.02;100.00
53619;BME280;39505;53.040;18.488;2022-10-18T01:02:10;101986.47;;;12.00;100.00
53619;BME280;39505;53.040;18.488;2022-10-18T01:02:27;101998.06;;;12.01;100.00
53619;BME280;39505;53.040;18.488;2022-10-18T01:02:42;102001.59;;;12.01;100.00
53619;BME280;39505;53.040;18.488;2022-10-18T01:02:55;102003.44;;;12.01;100.00
53619;BME280;39505;53.040;18.488;2022-10-18T01:03:10;101994.53;;;12.00;100.00
53619;BME280;39505;53.040;18.488;2022-10-18T01:03:23;101991.94;;;11.99;100.00
53619;BME280;39505;53.040;18.488;2022-10-18T01:03:36;101999.91;;;12.00;100.00
53619;BME280;39505;53.040;18.488;2022-10-18T01:03:50;101998.91;;;12.01;100.00
53619;BME280;39505;53.040;18.488;2022-10-18T01:04:03;102002.59;;;12.00;100.00
53619;BME280;39505;53.040;18.488;2022-10-18T01:04:17;101997.22;;;12.00;100.00
53619;BME280;39505;53.040;18.488;2022-10-18T01:04:30;101996.22;;;12.01;100.00
53619;BME280;39505;53.040;18.488;2022-10-18T01:04:46;101998.06;;;12.01;100.00
53619;BME280;39505;53.040;18.488;2022-10-18T01:05:00;101993.53;;;12.01;100.00
53619;BME280;39505;53.040;18.488;2022-10-18T01:05:15;101990.84;;;12.01;100.00
53619;BME280;39505;53.040;18.488;2022-10-18T01:05:27;101992.59;;;12.02;100.00
53619;BME280;39505;53.040;18.488;2022-10-18T01:05:43;101997.97;;;12.02;100.00
53619;BME280;39505;53.040;18.488;2022-10-18T01:05:56;101992.59;;;12.02;100.00
53619;BME280;39505;53.040;18.488;2022-10-18T01:06:09;101986.34;;;12.02;100.00
53619;BME280;39505;53.040;18.488;2022-10-18T01:06:24;101986.34;;;12.02;100.00
53619;BME280;39505;53.040;18.488;2022-10-18T01:06:48;101996.22;;;12.01;100.00
53619;BME280;39505;53.040;18.488;2022-10-18T01:07:09;101993.53;;;12.01;100.00
53619;BME280;39505;53.040;18.488;2022-10-18T01:07:36;101990.00;;;12.01;100.00
53619;BME280;39505;53.040;18.488;2022-10-18T01:08:18;101985.72;;;11.98;100.00
53619;BME280;39505;53.040;18.488;2022-10-18T01:08:52;101997.41;;;11.97;100.00
53619;BME280;39505;53.040;18.488;2022-10-18T01:09:12;101999.25;;;11.97;100.00
53619;BME280;39505;53.040;18.488;2022-10-18T01:09:32;101994.97;;;11.94;100.00
53619;BME280;39505;53.040;18.488;2022-10-18T01:09:56;101999.34;;;11.95;100.00
53619;BME280;39505;53.040;18.488;2022-10-18T01:10:20;101994.84;;;11.96;100.00
53619;BME280;39505;53.040;18.488;2022-10-18T01:10:44;101992.16;;;11.96;100.00
53619;BME280;39505;53.040;18.488;2022-10-18T01:11:17;101998.41;;;11.96;100.00
53619;BME280;39505;53.040;18.488;2022-10-18T01:11:46;101988.59;;;11.95;100.00
53619;BME280;39505;53.040;18.488;2022-10-18T01:12:11;101993.97;;;11.95;100.00
53619;BME280;39505;53.040;18.488;2022-10-18T01:12:36;101989.59;;;11.94;100.00
53619;BME280;39505;53.040;18.488;2022-10-18T01:13:05;101995.81;;;11.95;100.00
53619;BME280;39505;53.040;18.488;2022-10-18T01:13:32;101993.25;;;11.93;100.00
53619;BME280;39505;53.040;18.488;2022-10-18T01:14:01;101992.38;;;11.93;100.00
53619;BME280;39505;53.040;18.488;2022-10-18T01:14:29;101998.72;;;11.91;100.00
53619;BME280;39505;53.040;18.488;2022-10-18T01:14:58;101993.34;;;11.91;100.00
53619;BME280;39505;53.040;18.488;2022-10-18T01:15:23;101991.63;;;11.90;100.00
53619;BME280;39505;53.040;18.488;2022-10-18T01:15:42;101999.81;;;11.89;100.00
53619;BME280;39505;53.040;18.488;2022-10-18T01:16:00;101989.06;;;11.89;100.00
53619;BME280;39505;53.040;18.488;2022-10-18T01:16:23;101990.88;;;11.88;100.00